KCYS/CYS METAR and TAF weather

Enter ICAO airport designator
Station Type Date Time Source
KCYS METAR 2019/06/26 21:53 UTC NOAA

KCYS 262153Z 27011G23KT 10SM FEW080 BKN110 26/M02 A3010 RMK AO2 SLP117 T02561017 $


Station Type Date Time Source
KCYS Decoded METAR 2019/06/26 21:53 UTC NOAA

CHEYENNE AIRPORT, WY, United States (KCYS) 41-09N 104-48W 1865M
Jun 26, 2019 - 05:53 PM EDT / 2019.06.26 2153 UTC
Wind: from the W (270 degrees) at 13 MPH (11 KT) gusting to 26 MPH (23 KT):0
Visibility: 10 mile(s):0
Sky conditions: mostly cloudy
Temperature: 78.1 F (25.6 C)
Dew Point: 28.9 F (-1.7 C)
Relative Humidity: 16%
Pressure (altimeter): 30.1 in. Hg (1019 hPa)
ob: KCYS 262153Z 27011G23KT 10SM FEW080 BKN110 26/M02 A3010 RMK AO2 SLP117 T02561017
cycle: 22

Station Type Date Time Source
KCYS TAF 2019/06/26 21:45 UTC NOAA

TAF
AMD KCYS 262042Z 2621/2718 20007KT P6SM VCSH SCT100 BKN200
FM262200 22009KT P6SM VCTS SCT080CB SCT150
FM270100 25006KT P6SM BKN100
FM270600 24005KT P6SM FEW250

Example: see airport list